sensor_id;sensor_type;location;lat;lon;timestamp;P1;durP1;ratioP1;P2;durP2;ratioP2
56391;SDS011;76123;53.584;9.978;2024-02-28T00:00:26;39.45;;;19.25;;
56391;SDS011;76123;53.584;9.978;2024-02-28T00:02:53;41.97;;;20.20;;
56391;SDS011;76123;53.584;9.978;2024-02-28T00:05:21;37.92;;;19.25;;
56391;SDS011;76123;53.584;9.978;2024-02-28T00:07:47;39.42;;;19.33;;
56391;SDS011;76123;53.584;9.978;2024-02-28T00:10:14;41.35;;;20.60;;
56391;SDS011;76123;53.584;9.978;2024-02-28T00:12:40;44.13;;;20.55;;
56391;SDS011;76123;53.584;9.978;2024-02-28T00:15:07;43.83;;;21.27;;
56391;SDS011;76123;53.584;9.978;2024-02-28T00:17:37;42.97;;;21.17;;
56391;SDS011;76123;53.584;9.978;2024-02-28T00:20:04;44.20;;;20.25;;
56391;SDS011;76123;53.584;9.978;2024-02-28T00:22:32;38.50;;;19.50;;
56391;SDS011;76123;53.584;9.978;2024-02-28T00:24:59;41.47;;;19.98;;
56391;SDS011;76123;53.584;9.978;2024-02-28T00:27:26;42.72;;;20.05;;
56391;SDS011;76123;53.584;9.978;2024-02-28T00:29:53;41.83;;;19.25;;
56391;SDS011;76123;53.584;9.978;2024-02-28T00:32:19;41.75;;;19.20;;
56391;SDS011;76123;53.584;9.978;2024-02-28T00:34:46;46.55;;;19.73;;
56391;SDS011;76123;53.584;9.978;2024-02-28T00:37:12;41.80;;;19.90;;
56391;SDS011;76123;53.584;9.978;2024-02-28T00:39:40;43.17;;;19.73;;
56391;SDS011;76123;53.584;9.978;2024-02-28T00:42:07;44.60;;;20.95;;
56391;SDS011;76123;53.584;9.978;2024-02-28T00:44:33;42.17;;;19.83;;
56391;SDS011;76123;53.584;9.978;2024-02-28T00:47:00;44.20;;;20.15;;
56391;SDS011;76123;53.584;9.978;2024-02-28T00:49:26;44.03;;;20.73;;
56391;SDS011;76123;53.584;9.978;2024-02-28T00:51:53;43.30;;;20.02;;
56391;SDS011;76123;53.584;9.978;2024-02-28T00:54:20;41.65;;;20.67;;
56391;SDS011;76123;53.584;9.978;2024-02-28T00:56:50;45.33;;;21.65;;
56391;SDS011;76123;53.584;9.978;2024-02-28T00:59:16;40.17;;;19.67;;
56391;SDS011;76123;53.584;9.978;2024-02-28T01:01:43;42.67;;;20.25;;
56391;SDS011;76123;53.584;9.978;2024-02-28T01:04:10;46.47;;;21.98;;
56391;SDS011;76123;53.584;9.978;2024-02-28T01:06:36;41.17;;;20.25;;
56391;SDS011;76123;53.584;9.978;2024-02-28T01:09:04;42.80;;;20.67;;
56391;SDS011;76123;53.584;9.978;2024-02-28T01:11:31;45.53;;;20.88;;
56391;SDS011;76123;53.584;9.978;2024-02-28T01:13:59;41.72;;;19.58;;
56391;SDS011;76123;53.584;9.978;2024-02-28T01:16:25;46.33;;;20.55;;
56391;SDS011;76123;53.584;9.978;2024-02-28T01:18:53;46.30;;;20.10;;
56391;SDS011;76123;53.584;9.978;2024-02-28T01:21:19;44.03;;;19.38;;
56391;SDS011;76123;53.584;9.978;2024-02-28T01:23:46;42.40;;;18.80;;
56391;SDS011;76123;53.584;9.978;2024-02-28T01:26:12;46.88;;;20.15;;
56391;SDS011;76123;53.584;9.978;2024-02-28T01:28:39;41.20;;;19.30;;
56391;SDS011;76123;53.584;9.978;2024-02-28T01:31:07;41.20;;;18.98;;
56391;SDS011;76123;53.584;9.978;2024-02-28T01:33:33;43.38;;;18.73;;
56391;SDS011;76123;53.584;9.978;2024-02-28T01:36:00;44.08;;;19.52;;
56391;SDS011;76123;53.584;9.978;2024-02-28T01:38:27;43.45;;;18.75;;
56391;SDS011;76123;53.584;9.978;2024-02-28T01:40:53;45.40;;;19.90;;
56391;SDS011;76123;53.584;9.978;2024-02-28T01:43:20;45.30;;;20.02;;
56391;SDS011;76123;53.584;9.978;2024-02-28T01:45:46;44.28;;;19.88;;
56391;SDS011;76123;53.584;9.978;2024-02-28T01:48:14;45.65;;;20.42;;
56391;SDS011;76123;53.584;9.978;2024-02-28T01:50:42;46.00;;;19.65;;
56391;SDS011;76123;53.584;9.978;2024-02-28T01:53:09;41.22;;;18.65;;
56391;SDS011;76123;53.584;9.978;2024-02-28T01:55:36;41.92;;;18.25;;
56391;SDS011;76123;53.584;9.978;2024-02-28T01:58:03;46.00;;;19.58;;
56391;SDS011;76123;53.584;9.978;2024-02-28T02:00:31;43.67;;;19.30;;
56391;SDS011;76123;53.584;9.978;2024-02-28T02:02:59;38.10;;;17.65;;
56391;SDS011;76123;53.584;9.978;2024-02-28T02:05:28;38.03;;;17.70;;
56391;SDS011;76123;53.584;9.978;2024-02-28T02:07:54;37.60;;;17.17;;
56391;SDS011;76123;53.584;9.978;2024-02-28T02:10:23;39.33;;;17.15;;
56391;SDS011;76123;53.584;9.978;2024-02-28T02:12:49;38.63;;;17.40;;
56391;SDS011;76123;53.584;9.978;2024-02-28T02:15:16;38.47;;;17.05;;
56391;SDS011;76123;53.584;9.978;2024-02-28T02:17:42;41.92;;;17.50;;
56391;SDS011;76123;53.584;9.978;2024-02-28T02:20:09;37.67;;;16.63;;
56391;SDS011;76123;53.584;9.978;2024-02-28T02:22:39;36.83;;;16.27;;
56391;SDS011;76123;53.584;9.978;2024-02-28T02:25:06;38.25;;;16.50;;
56391;SDS011;76123;53.584;9.978;2024-02-28T02:27:33;36.58;;;16.40;;
56391;SDS011;76123;53.584;9.978;2024-02-28T02:29:59;39.97;;;17.38;;
56391;SDS011;76123;53.584;9.978;2024-02-28T02:32:26;37.67;;;16.83;;
56391;SDS011;76123;53.584;9.978;2024-02-28T02:34:53;35.70;;;15.52;;
56391;SDS011;76123;53.584;9.978;2024-02-28T02:37:20;37.40;;;15.48;;
56391;SDS011;76123;53.584;9.978;2024-02-28T02:39:48;34.67;;;15.15;;
56391;SDS011;76123;53.584;9.978;2024-02-28T02:42:14;35.00;;;15.63;;
56391;SDS011;76123;53.584;9.978;2024-02-28T02:44:41;35.13;;;15.35;;
56391;SDS011;76123;53.584;9.978;2024-02-28T02:47:08;35.90;;;15.93;;
56391;SDS011;76123;53.584;9.978;2024-02-28T02:49:35;34.15;;;14.05;;
56391;SDS011;76123;53.584;9.978;2024-02-28T02:52:02;36.60;;;15.02;;
56391;SDS011;76123;53.584;9.978;2024-02-28T02:54:28;36.08;;;14.52;;
56391;SDS011;76123;53.584;9.978;2024-02-28T02:56:56;35.08;;;14.38;;
56391;SDS011;76123;53.584;9.978;2024-02-28T02:59:23;33.13;;;14.02;;
56391;SDS011;76123;53.584;9.978;2024-02-28T03:01:49;35.50;;;14.45;;
56391;SDS011;76123;53.584;9.978;2024-02-28T03:04:16;37.83;;;13.57;;
56391;SDS011;76123;53.584;9.978;2024-02-28T03:06:43;32.80;;;14.15;;
56391;SDS011;76123;53.584;9.978;2024-02-28T03:09:09;34.78;;;14.50;;
56391;SDS011;76123;53.584;9.978;2024-02-28T03:11:36;37.08;;;14.68;;
56391;SDS011;76123;53.584;9.978;2024-02-28T03:14:04;35.53;;;14.55;;
56391;SDS011;76123;53.584;9.978;2024-02-28T03:16:31;34.95;;;14.30;;
56391;SDS011;76123;53.584;9.978;2024-02-28T03:18:57;33.78;;;13.95;;
56391;SDS011;76123;53.584;9.978;2024-02-28T03:21:24;35.38;;;14.35;;
56391;SDS011;76123;53.584;9.978;2024-02-28T03:23:51;33.03;;;14.15;;
56391;SDS011;76123;53.584;9.978;2024-02-28T03:26:17;32.28;;;13.68;;
56391;SDS011;76123;53.584;9.978;2024-02-28T03:28:44;33.65;;;13.55;;
56391;SDS011;76123;53.584;9.978;2024-02-28T03:31:12;33.97;;;13.20;;
56391;SDS011;76123;53.584;9.978;2024-02-28T03:33:39;32.67;;;13.02;;
56391;SDS011;76123;53.584;9.978;2024-02-28T03:36:06;31.90;;;12.85;;
56391;SDS011;76123;53.584;9.978;2024-02-28T03:38:32;32.38;;;13.32;;
56391;SDS011;76123;53.584;9.978;2024-02-28T03:40:59;28.88;;;12.55;;
56391;SDS011;76123;53.584;9.978;2024-02-28T03:43:25;31.38;;;13.32;;
56391;SDS011;76123;53.584;9.978;2024-02-28T03:45:52;30.92;;;12.43;;
56391;SDS011;76123;53.584;9.978;2024-02-28T03:48:20;31.08;;;13.50;;
56391;SDS011;76123;53.584;9.978;2024-02-28T03:50:46;30.70;;;13.20;;
56391;SDS011;76123;53.584;9.978;2024-02-28T03:53:13;32.08;;;13.25;;
56391;SDS011;76123;53.584;9.978;2024-02-28T03:55:40;34.20;;;13.30;;
56391;SDS011;76123;53.584;9.978;2024-02-28T03:58:09;33.00;;;13.77;;
56391;SDS011;76123;53.584;9.978;2024-02-28T04:00:35;36.55;;;14.48;;
56391;SDS011;76123;53.584;9.978;2024-02-28T04:03:02;32.38;;;13.18;;
56391;SDS011;76123;53.584;9.978;2024-02-28T04:05:31;30.58;;;13.38;;
56391;SDS011;76123;53.584;9.978;2024-02-28T04:07:57;32.13;;;13.95;;
56391;SDS011;76123;53.584;9.978;2024-02-28T04:10:24;33.25;;;13.75;;
56391;SDS011;76123;53.584;9.978;2024-02-28T04:12:50;30.52;;;14.20;;
56391;SDS011;76123;53.584;9.978;2024-02-28T04:15:17;34.38;;;13.77;;
56391;SDS011;76123;53.584;9.978;2024-02-28T04:17:43;30.08;;;13.20;;
56391;SDS011;76123;53.584;9.978;2024-02-28T04:20:10;32.65;;;13.48;;
56391;SDS011;76123;53.584;9.978;2024-02-28T04:22:39;33.28;;;14.48;;
56391;SDS011;76123;53.584;9.978;2024-02-28T04:25:06;35.30;;;15.00;;
56391;SDS011;76123;53.584;9.978;2024-02-28T04:27:34;36.47;;;14.73;;
56391;SDS011;76123;53.584;9.978;2024-02-28T04:30:01;32.45;;;13.95;;
56391;SDS011;76123;53.584;9.978;2024-02-28T04:32:27;37.08;;;14.75;;
56391;SDS011;76123;53.584;9.978;2024-02-28T04:34:54;36.72;;;14.82;;
56391;SDS011;76123;53.584;9.978;2024-02-28T04:37:20;37.00;;;15.30;;
56391;SDS011;76123;53.584;9.978;2024-02-28T04:39:48;34.75;;;14.98;;
56391;SDS011;76123;53.584;9.978;2024-02-28T04:42:15;38.75;;;15.63;;
56391;SDS011;76123;53.584;9.978;2024-02-28T04:44:42;36.75;;;15.40;;
56391;SDS011;76123;53.584;9.978;2024-02-28T04:47:09;36.05;;;15.73;;
56391;SDS011;76123;53.584;9.978;2024-02-28T04:49:36;34.25;;;14.95;;
56391;SDS011;76123;53.584;9.978;2024-02-28T04:52:03;37.25;;;15.20;;
56391;SDS011;76123;53.584;9.978;2024-02-28T04:54:30;38.72;;;15.75;;
56391;SDS011;76123;53.584;9.978;2024-02-28T04:56:58;32.08;;;13.55;;
56391;SDS011;76123;53.584;9.978;2024-02-28T04:59:24;36.53;;;14.82;;
56391;SDS011;76123;53.584;9.978;2024-02-28T05:01:51;37.45;;;15.35;;
56391;SDS011;76123;53.584;9.978;2024-02-28T05:04:18;35.33;;;14.68;;
56391;SDS011;76123;53.584;9.978;2024-02-28T05:06:44;35.10;;;14.27;;
56391;SDS011;76123;53.584;9.978;2024-02-28T05:09:11;35.08;;;14.82;;
56391;SDS011;76123;53.584;9.978;2024-02-28T05:11:37;35.60;;;15.45;;
56391;SDS011;76123;53.584;9.978;2024-02-28T05:14:05;33.97;;;14.88;;
56391;SDS011;76123;53.584;9.978;2024-02-28T05:16:32;37.50;;;15.05;;
56391;SDS011;76123;53.584;9.978;2024-02-28T05:18:58;33.85;;;14.80;;
56391;SDS011;76123;53.584;9.978;2024-02-28T05:21:25;34.83;;;14.88;;
56391;SDS011;76123;53.584;9.978;2024-02-28T05:23:51;33.25;;;14.55;;
56391;SDS011;76123;53.584;9.978;2024-02-28T05:26:19;37.63;;;15.10;;
56391;SDS011;76123;53.584;9.978;2024-02-28T05:28:46;34.60;;;15.13;;
56391;SDS011;76123;53.584;9.978;2024-02-28T05:31:21;35.60;;;14.70;;
56391;SDS011;76123;53.584;9.978;2024-02-28T05:33:50;34.28;;;14.98;;
56391;SDS011;76123;53.584;9.978;2024-02-28T05:36:17;33.60;;;15.13;;
56391;SDS011;76123;53.584;9.978;2024-02-28T05:38:44;34.17;;;14.48;;
56391;SDS011;76123;53.584;9.978;2024-02-28T05:41:11;36.00;;;15.70;;
56391;SDS011;76123;53.584;9.978;2024-02-28T05:43:37;37.83;;;15.52;;
56391;SDS011;76123;53.584;9.978;2024-02-28T05:46:04;34.90;;;15.35;;
56391;SDS011;76123;53.584;9.978;2024-02-28T05:48:32;36.83;;;14.70;;
56391;SDS011;76123;53.584;9.978;2024-02-28T05:51:00;35.40;;;15.63;;
56391;SDS011;76123;53.584;9.978;2024-02-28T05:53:27;33.38;;;15.25;;
56391;SDS011;76123;53.584;9.978;2024-02-28T05:55:57;38.25;;;15.68;;
56391;SDS011;76123;53.584;9.978;2024-02-28T05:58:24;37.97;;;16.40;;
56391;SDS011;76123;53.584;9.978;2024-02-28T06:00:51;34.97;;;14.98;;
56391;SDS011;76123;53.584;9.978;2024-02-28T06:03:17;37.22;;;16.10;;
56391;SDS011;76123;53.584;9.978;2024-02-28T06:05:45;35.67;;;15.32;;
56391;SDS011;76123;53.584;9.978;2024-02-28T06:08:13;34.30;;;15.07;;
56391;SDS011;76123;53.584;9.978;2024-02-28T06:10:40;33.80;;;14.52;;
56391;SDS011;76123;53.584;9.978;2024-02-28T06:13:07;35.78;;;14.98;;
56391;SDS011;76123;53.584;9.978;2024-02-28T06:15:34;36.88;;;15.55;;
56391;SDS011;76123;53.584;9.978;2024-02-28T06:18:00;33.88;;;15.70;;
56391;SDS011;76123;53.584;9.978;2024-02-28T06:20:27;35.67;;;15.48;;
56391;SDS011;76123;53.584;9.978;2024-02-28T06:22:58;33.95;;;15.00;;
56391;SDS011;76123;53.584;9.978;2024-02-28T06:25:26;34.17;;;15.60;;
56391;SDS011;76123;53.584;9.978;2024-02-28T06:27:54;32.60;;;14.73;;
56391;SDS011;76123;53.584;9.978;2024-02-28T06:30:22;35.00;;;15.10;;
56391;SDS011;76123;53.584;9.978;2024-02-28T06:32:51;29.77;;;13.95;;
56391;SDS011;76123;53.584;9.978;2024-02-28T06:35:19;31.90;;;13.93;;
56391;SDS011;76123;53.584;9.978;2024-02-28T06:37:46;30.90;;;13.77;;
56391;SDS011;76123;53.584;9.978;2024-02-28T06:40:16;30.52;;;13.65;;
56391;SDS011;76123;53.584;9.978;2024-02-28T06:42:42;30.65;;;14.38;;
56391;SDS011;76123;53.584;9.978;2024-02-28T06:45:10;29.10;;;12.85;;
56391;SDS011;76123;53.584;9.978;2024-02-28T06:47:37;29.13;;;12.95;;
56391;SDS011;76123;53.584;9.978;2024-02-28T06:50:06;25.55;;;11.45;;
56391;SDS011;76123;53.584;9.978;2024-02-28T06:52:35;26.77;;;12.77;;
56391;SDS011;76123;53.584;9.978;2024-02-28T06:55:03;28.80;;;12.57;;
56391;SDS011;76123;53.584;9.978;2024-02-28T06:57:37;28.13;;;12.50;;
56391;SDS011;76123;53.584;9.978;2024-02-28T07:00:05;25.70;;;11.65;;
56391;SDS011;76123;53.584;9.978;2024-02-28T07:02:35;25.70;;;11.90;;
56391;SDS011;76123;53.584;9.978;2024-02-28T07:05:04;29.63;;;11.93;;
56391;SDS011;76123;53.584;9.978;2024-02-28T07:07:32;24.38;;;11.27;;
56391;SDS011;76123;53.584;9.978;2024-02-28T07:09:59;25.05;;;12.23;;
56391;SDS011;76123;53.584;9.978;2024-02-28T07:12:25;27.33;;;11.30;;
56391;SDS011;76123;53.584;9.978;2024-02-28T07:14:53;26.42;;;11.95;;
56391;SDS011;76123;53.584;9.978;2024-02-28T07:17:20;23.73;;;11.88;;
56391;SDS011;76123;53.584;9.978;2024-02-28T07:19:47;26.70;;;12.45;;
56391;SDS011;76123;53.584;9.978;2024-02-28T07:22:13;25.85;;;12.07;;
56391;SDS011;76123;53.584;9.978;2024-02-28T07:24:40;24.98;;;11.38;;
56391;SDS011;76123;53.584;9.978;2024-02-28T07:27:07;24.73;;;11.88;;
56391;SDS011;76123;53.584;9.978;2024-02-28T07:29:34;23.20;;;11.50;;
56391;SDS011;76123;53.584;9.978;2024-02-28T07:32:04;25.25;;;12.35;;
56391;SDS011;76123;53.584;9.978;2024-02-28T07:34:30;25.05;;;11.75;;
56391;SDS011;76123;53.584;9.978;2024-02-28T07:36:57;31.50;;;12.48;;
56391;SDS011;76123;53.584;9.978;2024-02-28T07:39:24;27.45;;;12.73;;
56391;SDS011;76123;53.584;9.978;2024-02-28T07:41:50;26.85;;;12.15;;
56391;SDS011;76123;53.584;9.978;2024-02-28T07:44:17;26.48;;;12.15;;
56391;SDS011;76123;53.584;9.978;2024-02-28T07:46:44;24.92;;;11.60;;
56391;SDS011;76123;53.584;9.978;2024-02-28T07:49:13;26.50;;;12.38;;
56391;SDS011;76123;53.584;9.978;2024-02-28T07:51:40;27.73;;;12.93;;
56391;SDS011;76123;53.584;9.978;2024-02-28T07:54:06;25.98;;;12.43;;
56391;SDS011;76123;53.584;9.978;2024-02-28T07:56:33;27.95;;;13.30;;
56391;SDS011;76123;53.584;9.978;2024-02-28T07:59:00;26.35;;;11.82;;
56391;SDS011;76123;53.584;9.978;2024-02-28T08:01:26;22.80;;;11.45;;
56391;SDS011;76123;53.584;9.978;2024-02-28T08:03:53;26.33;;;12.70;;
56391;SDS011;76123;53.584;9.978;2024-02-28T08:06:21;25.38;;;11.95;;
56391;SDS011;76123;53.584;9.978;2024-02-28T08:08:48;33.50;;;14.15;;
56391;SDS011;76123;53.584;9.978;2024-02-28T08:11:14;30.35;;;13.23;;
56391;SDS011;76123;53.584;9.978;2024-02-28T08:13:41;32.05;;;13.80;;
56391;SDS011;76123;53.584;9.978;2024-02-28T08:16:08;34.97;;;15.20;;
56391;SDS011;76123;53.584;9.978;2024-02-28T08:18:35;33.63;;;14.50;;
56391;SDS011;76123;53.584;9.978;2024-02-28T08:21:02;35.17;;;15.32;;
56391;SDS011;76123;53.584;9.978;2024-02-28T08:23:30;34.63;;;15.48;;
56391;SDS011;76123;53.584;9.978;2024-02-28T08:25:57;33.58;;;15.00;;
56391;SDS011;76123;53.584;9.978;2024-02-28T08:28:24;34.05;;;15.98;;
56391;SDS011;76123;53.584;9.978;2024-02-28T08:30:55;37.75;;;16.10;;
56391;SDS011;76123;53.584;9.978;2024-02-28T08:33:27;36.33;;;16.75;;
56391;SDS011;76123;53.584;9.978;2024-02-28T08:35:53;40.88;;;17.23;;
56391;SDS011;76123;53.584;9.978;2024-02-28T08:38:20;41.03;;;18.38;;
56391;SDS011;76123;53.584;9.978;2024-02-28T08:40:48;39.22;;;17.30;;
56391;SDS011;76123;53.584;9.978;2024-02-28T08:43:15;47.28;;;18.65;;
56391;SDS011;76123;53.584;9.978;2024-02-28T08:45:41;39.05;;;17.40;;
56391;SDS011;76123;53.584;9.978;2024-02-28T08:48:08;38.60;;;17.33;;
56391;SDS011;76123;53.584;9.978;2024-02-28T08:50:34;43.65;;;18.88;;
56391;SDS011;76123;53.584;9.978;2024-02-28T08:53:01;41.10;;;18.10;;
56391;SDS011;76123;53.584;9.978;2024-02-28T08:55:29;40.55;;;18.13;;
56391;SDS011;76123;53.584;9.978;2024-02-28T08:57:57;44.40;;;18.95;;
56391;SDS011;76123;53.584;9.978;2024-02-28T09:00:24;39.22;;;17.92;;
56391;SDS011;76123;53.584;9.978;2024-02-28T09:02:50;40.38;;;18.50;;
56391;SDS011;76123;53.584;9.978;2024-02-28T09:05:17;43.17;;;18.92;;
56391;SDS011;76123;53.584;9.978;2024-02-28T09:07:44;43.95;;;18.45;;
56391;SDS011;76123;53.584;9.978;2024-02-28T09:10:11;41.65;;;18.45;;
56391;SDS011;76123;53.584;9.978;2024-02-28T09:12:38;40.78;;;18.75;;
56391;SDS011;76123;53.584;9.978;2024-02-28T09:15:06;39.45;;;18.45;;
56391;SDS011;76123;53.584;9.978;2024-02-28T09:17:33;40.22;;;18.58;;
56391;SDS011;76123;53.584;9.978;2024-02-28T09:19:59;39.97;;;18.45;;
56391;SDS011;76123;53.584;9.978;2024-02-28T09:22:29;39.47;;;18.52;;
56391;SDS011;76123;53.584;9.978;2024-02-28T09:24:55;38.95;;;17.65;;
56391;SDS011;76123;53.584;9.978;2024-02-28T09:27:22;39.45;;;17.73;;
56391;SDS011;76123;53.584;9.978;2024-02-28T09:29:49;35.08;;;17.35;;
56391;SDS011;76123;53.584;9.978;2024-02-28T09:32:17;35.35;;;16.80;;
56391;SDS011;76123;53.584;9.978;2024-02-28T09:34:44;33.95;;;17.05;;
56391;SDS011;76123;53.584;9.978;2024-02-28T09:37:10;34.25;;;17.02;;
56391;SDS011;76123;53.584;9.978;2024-02-28T09:39:37;32.35;;;15.77;;
56391;SDS011;76123;53.584;9.978;2024-02-28T09:42:04;31.67;;;15.93;;
56391;SDS011;76123;53.584;9.978;2024-02-28T09:44:32;33.45;;;16.48;;
56391;SDS011;76123;53.584;9.978;2024-02-28T09:46:59;32.70;;;14.98;;
56391;SDS011;76123;53.584;9.978;2024-02-28T09:49:27;31.67;;;16.00;;
56391;SDS011;76123;53.584;9.978;2024-02-28T09:51:57;32.05;;;15.68;;
56391;SDS011;76123;53.584;9.978;2024-02-28T09:54:25;29.48;;;14.63;;
56391;SDS011;76123;53.584;9.978;2024-02-28T09:56:52;34.17;;;15.55;;
56391;SDS011;76123;53.584;9.978;2024-02-28T09:59:19;31.70;;;15.27;;
56391;SDS011;76123;53.584;9.978;2024-02-28T10:01:47;33.58;;;15.52;;
56391;SDS011;76123;53.584;9.978;2024-02-28T10:04:21;34.13;;;15.23;;
56391;SDS011;76123;53.584;9.978;2024-02-28T10:06:51;33.17;;;15.98;;
56391;SDS011;76123;53.584;9.978;2024-02-28T10:09:17;31.42;;;15.43;;
56391;SDS011;76123;53.584;9.978;2024-02-28T10:11:44;31.33;;;14.57;;
56391;SDS011;76123;53.584;9.978;2024-02-28T10:14:11;30.73;;;14.63;;
56391;SDS011;76123;53.584;9.978;2024-02-28T10:16:42;32.38;;;15.15;;
56391;SDS011;76123;53.584;9.978;2024-02-28T10:19:09;32.58;;;15.02;;
56391;SDS011;76123;53.584;9.978;2024-02-28T10:21:35;28.73;;;14.38;;
56391;SDS011;76123;53.584;9.978;2024-02-28T10:24:04;32.00;;;15.07;;
56391;SDS011;76123;53.584;9.978;2024-02-28T10:26:31;28.92;;;14.55;;
56391;SDS011;76123;53.584;9.978;2024-02-28T10:29:03;30.10;;;15.07;;
56391;SDS011;76123;53.584;9.978;2024-02-28T10:31:31;28.33;;;14.38;;
56391;SDS011;76123;53.584;9.978;2024-02-28T10:33:58;27.52;;;14.60;;
56391;SDS011;76123;53.584;9.978;2024-02-28T10:36:26;27.67;;;13.70;;
56391;SDS011;76123;53.584;9.978;2024-02-28T10:38:57;27.38;;;13.60;;
56391;SDS011;76123;53.584;9.978;2024-02-28T10:41:27;28.40;;;14.55;;
56391;SDS011;76123;53.584;9.978;2024-02-28T10:43:54;27.35;;;14.18;;
56391;SDS011;76123;53.584;9.978;2024-02-28T10:46:21;28.63;;;14.13;;
56391;SDS011;76123;53.584;9.978;2024-02-28T10:48:49;29.48;;;14.98;;
56391;SDS011;76123;53.584;9.978;2024-02-28T10:51:18;29.17;;;15.13;;
56391;SDS011;76123;53.584;9.978;2024-02-28T10:53:49;28.08;;;14.32;;
56391;SDS011;76123;53.584;9.978;2024-02-28T10:56:20;29.42;;;14.77;;
56391;SDS011;76123;53.584;9.978;2024-02-28T10:58:49;26.73;;;14.07;;
56391;SDS011;76123;53.584;9.978;2024-02-28T11:01:18;25.38;;;13.68;;
56391;SDS011;76123;53.584;9.978;2024-02-28T11:03:44;26.75;;;13.35;;
56391;SDS011;76123;53.584;9.978;2024-02-28T11:06:18;22.98;;;11.65;;
56391;SDS011;76123;53.584;9.978;2024-02-28T11:08:46;25.33;;;12.60;;
56391;SDS011;76123;53.584;9.978;2024-02-28T11:11:14;25.27;;;12.80;;
56391;SDS011;76123;53.584;9.978;2024-02-28T11:13:52;28.05;;;12.68;;
56391;SDS011;76123;53.584;9.978;2024-02-28T11:16:25;28.00;;;13.43;;
56391;SDS011;76123;53.584;9.978;2024-02-28T11:18:52;27.05;;;12.60;;
56391;SDS011;76123;53.584;9.978;2024-02-28T11:21:19;25.95;;;12.60;;
56391;SDS011;76123;53.584;9.978;2024-02-28T11:23:49;28.80;;;13.85;;
56391;SDS011;76123;53.584;9.978;2024-02-28T11:26:16;28.80;;;13.48;;
56391;SDS011;76123;53.584;9.978;2024-02-28T11:28:43;28.52;;;13.15;;
56391;SDS011;76123;53.584;9.978;2024-02-28T11:31:11;33.00;;;14.10;;
56391;SDS011;76123;53.584;9.978;2024-02-28T11:33:37;27.30;;;13.40;;
56391;SDS011;76123;53.584;9.978;2024-02-28T11:36:04;27.85;;;14.13;;
56391;SDS011;76123;53.584;9.978;2024-02-28T11:38:34;31.42;;;15.10;;
56391;SDS011;76123;53.584;9.978;2024-02-28T11:41:03;27.65;;;14.05;;
56391;SDS011;76123;53.584;9.978;2024-02-28T11:43:30;30.10;;;14.73;;
56391;SDS011;76123;53.584;9.978;2024-02-28T11:45:57;30.90;;;13.98;;
56391;SDS011;76123;53.584;9.978;2024-02-28T11:48:25;26.23;;;12.35;;
56391;SDS011;76123;53.584;9.978;2024-02-28T11:50:52;25.70;;;13.10;;
56391;SDS011;76123;53.584;9.978;2024-02-28T11:53:19;26.45;;;13.75;;
56391;SDS011;76123;53.584;9.978;2024-02-28T11:55:46;29.05;;;14.15;;
56391;SDS011;76123;53.584;9.978;2024-02-28T11:58:12;28.15;;;13.30;;
56391;SDS011;76123;53.584;9.978;2024-02-28T12:00:46;28.85;;;13.45;;
56391;SDS011;76123;53.584;9.978;2024-02-28T12:03:13;25.58;;;13.25;;
56391;SDS011;76123;53.584;9.978;2024-02-28T12:05:42;25.08;;;12.32;;
56391;SDS011;76123;53.584;9.978;2024-02-28T12:08:09;25.10;;;12.90;;
56391;SDS011;76123;53.584;9.978;2024-02-28T12:10:36;31.88;;;14.32;;
56391;SDS011;76123;53.584;9.978;2024-02-28T12:13:03;29.02;;;13.32;;
56391;SDS011;76123;53.584;9.978;2024-02-28T12:15:32;33.58;;;14.50;;
56391;SDS011;76123;53.584;9.978;2024-02-28T12:17:59;26.67;;;13.07;;
56391;SDS011;76123;53.584;9.978;2024-02-28T12:20:26;30.48;;;13.63;;
56391;SDS011;76123;53.584;9.978;2024-02-28T12:22:53;27.75;;;13.02;;
56391;SDS011;76123;53.584;9.978;2024-02-28T12:25:20;29.20;;;14.60;;
56391;SDS011;76123;53.584;9.978;2024-02-28T12:27:47;30.95;;;13.48;;
56391;SDS011;76123;53.584;9.978;2024-02-28T12:30:14;28.38;;;13.20;;
56391;SDS011;76123;53.584;9.978;2024-02-28T12:32:40;30.00;;;13.85;;
56391;SDS011;76123;53.584;9.978;2024-02-28T12:35:07;28.35;;;13.13;;
56391;SDS011;76123;53.584;9.978;2024-02-28T12:37:34;29.80;;;12.57;;
56391;SDS011;76123;53.584;9.978;2024-02-28T12:40:02;33.28;;;14.40;;
56391;SDS011;76123;53.584;9.978;2024-02-28T12:42:29;29.60;;;13.35;;
56391;SDS011;76123;53.584;9.978;2024-02-28T12:44:56;24.40;;;12.63;;
56391;SDS011;76123;53.584;9.978;2024-02-28T12:47:23;28.85;;;12.80;;
56391;SDS011;76123;53.584;9.978;2024-02-28T12:49:49;28.95;;;13.45;;
56391;SDS011;76123;53.584;9.978;2024-02-28T12:52:16;25.38;;;12.00;;
56391;SDS011;76123;53.584;9.978;2024-02-28T12:54:43;26.00;;;12.45;;
56391;SDS011;76123;53.584;9.978;2024-02-28T12:57:10;25.58;;;12.20;;
56391;SDS011;76123;53.584;9.978;2024-02-28T12:59:41;26.52;;;12.45;;
56391;SDS011;76123;53.584;9.978;2024-02-28T13:02:08;27.83;;;12.32;;
56391;SDS011;76123;53.584;9.978;2024-02-28T13:04:35;26.67;;;12.00;;
56391;SDS011;76123;53.584;9.978;2024-02-28T13:07:02;23.38;;;12.13;;
56391;SDS011;76123;53.584;9.978;2024-02-28T13:09:28;25.85;;;11.88;;
56391;SDS011;76123;53.584;9.978;2024-02-28T13:11:55;24.65;;;11.63;;
56391;SDS011;76123;53.584;9.978;2024-02-28T13:14:23;27.15;;;12.30;;
56391;SDS011;76123;53.584;9.978;2024-02-28T13:16:49;24.17;;;12.05;;
56391;SDS011;76123;53.584;9.978;2024-02-28T13:19:18;27.95;;;12.98;;
56391;SDS011;76123;53.584;9.978;2024-02-28T13:21:45;29.05;;;12.93;;
56391;SDS011;76123;53.584;9.978;2024-02-28T13:24:12;23.02;;;12.10;;
56391;SDS011;76123;53.584;9.978;2024-02-28T13:26:40;25.73;;;12.52;;
56391;SDS011;76123;53.584;9.978;2024-02-28T13:29:06;25.58;;;11.60;;
56391;SDS011;76123;53.584;9.978;2024-02-28T13:31:35;27.05;;;12.75;;
56391;SDS011;76123;53.584;9.978;2024-02-28T13:34:02;27.02;;;11.80;;
56391;SDS011;76123;53.584;9.978;2024-02-28T13:36:28;24.45;;;11.35;;
56391;SDS011;76123;53.584;9.978;2024-02-28T13:38:57;25.20;;;11.48;;
56391;SDS011;76123;53.584;9.978;2024-02-28T13:41:24;26.80;;;12.40;;
56391;SDS011;76123;53.584;9.978;2024-02-28T13:43:51;24.23;;;11.50;;
56391;SDS011;76123;53.584;9.978;2024-02-28T13:46:17;27.05;;;12.20;;
56391;SDS011;76123;53.584;9.978;2024-02-28T13:48:45;33.72;;;11.93;;
56391;SDS011;76123;53.584;9.978;2024-02-28T13:51:12;28.60;;;11.88;;
56391;SDS011;76123;53.584;9.978;2024-02-28T13:53:40;25.08;;;11.75;;
56391;SDS011;76123;53.584;9.978;2024-02-28T13:56:06;24.45;;;11.73;;
56391;SDS011;76123;53.584;9.978;2024-02-28T13:58:33;24.50;;;11.55;;
56391;SDS011;76123;53.584;9.978;2024-02-28T14:01:00;25.02;;;11.48;;
56391;SDS011;76123;53.584;9.978;2024-02-28T14:03:26;24.23;;;10.65;;
56391;SDS011;76123;53.584;9.978;2024-02-28T14:05:55;25.88;;;11.52;;
56391;SDS011;76123;53.584;9.978;2024-02-28T14:08:22;21.20;;;10.57;;
56391;SDS011;76123;53.584;9.978;2024-02-28T14:10:48;22.00;;;10.50;;
56391;SDS011;76123;53.584;9.978;2024-02-28T14:13:15;22.15;;;10.52;;
56391;SDS011;76123;53.584;9.978;2024-02-28T14:15:43;26.13;;;11.38;;
56391;SDS011;76123;53.584;9.978;2024-02-28T14:18:10;23.27;;;10.57;;
56391;SDS011;76123;53.584;9.978;2024-02-28T14:20:37;20.02;;;9.88;;